Time;durP1;ratioP1;P1;durP2;ratioP2;P2;SDS_P1;SDS_P2;PMS_P1;PMS_P2;Temp;Humidity;BMP_temperature;BMP_pressure;BME280_temperature;BME280_humidity;BME280_pressure;Samples;Min_cycle;Max_cycle;Signal;HPM_P1;HPM_P2
2024/02/11 00:00:53;;;;;;;80.60;20.80;;;;;;;7.49;59.63;99205.75;108118;1253;70112;-65
2024/02/11 00:03:27;;;;;;;111.30;24.80;;;;;;;7.55;59.37;99195.89;108035;1253;71703;-66
2024/02/11 00:05:56;;;;;;;110.70;22.90;;;;;;;7.38;59.68;99193.77;108116;1254;60445;-66
2024/02/11 00:08:23;;;;;;;96.70;22.70;;;;;;;7.23;60.29;99191.05;107955;1253;60447;-66
2024/02/11 00:10:52;;;;;;;80.50;20.80;;;;;;;7.25;60.36;99189.91;107983;1253;74277;-67
2024/02/11 00:13:19;;;;;;;70.60;19.10;;;;;;;7.28;60.32;99191.88;108065;1253;69960;-68
2024/02/11 00:15:47;;;;;;;84.70;20.90;;;;;;;7.31;59.96;99186.00;108043;1258;70928;-67
2024/02/11 00:18:15;;;;;;;88.40;22.00;;;;;;;7.23;60.30;99195.93;108023;1253;61072;-68
2024/02/11 00:20:42;;;;;;;85.90;24.60;;;;;;;7.22;60.34;99189.84;107975;1253;60364;-67
2024/02/11 00:23:10;;;;;;;97.40;22.30;;;;;;;7.21;60.56;99182.36;107953;1253;72664;-65
2024/02/11 00:25:39;;;;;;;101.50;21.70;;;;;;;7.18;60.67;99195.41;107967;1253;69184;-67
2024/02/11 00:28:08;;;;;;;113.00;22.40;;;;;;;7.22;60.76;99194.90;107970;1253;72884;-66
2024/02/11 00:30:37;;;;;;;109.40;22.10;;;;;;;7.40;60.17;99192.85;107967;1258;61302;-66
2024/02/11 00:33:05;;;;;;;112.80;21.40;;;;;;;7.48;59.76;99197.58;108068;1258;60326;-66
2024/02/11 00:35:34;;;;;;;108.50;22.20;;;;;;;7.47;60.00;99205.48;108092;1252;73216;-67
2024/02/11 00:38:01;;;;;;;93.10;21.60;;;;;;;7.52;59.82;99201.63;108086;1254;68857;-66
2024/02/11 00:40:29;;;;;;;90.40;22.10;;;;;;;7.52;59.70;99202.30;108003;1258;72650;-64
2024/02/11 00:42:56;;;;;;;119.50;22.60;;;;;;;7.53;59.71;99206.64;108057;1253;60798;-65
2024/02/11 00:45:24;;;;;;;97.80;22.80;;;;;;;7.55;59.61;99204.64;108092;1253;60422;-66
2024/02/11 00:47:51;;;;;;;79.90;19.40;;;;;;;7.54;59.87;99203.30;108035;1253;75971;-67
2024/02/11 00:50:19;;;;;;;143.60;25.70;;;;;;;7.47;59.86;99196.21;108007;1259;68855;-65
2024/02/11 00:52:48;;;;;;;108.50;21.30;;;;;;;7.44;59.90;99194.43;108088;1253;73058;-66
2024/02/11 00:55:21;;;;;;;106.30;23.10;;;;;;;7.24;60.50;99194.13;108135;1253;60392;-60
2024/02/11 00:57:49;;;;;;;83.30;21.00;;;;;;;7.26;60.66;99187.59;108175;1252;60556;-63
2024/02/11 01:00:17;;;;;;;90.40;20.60;;;;;;;7.32;60.46;99192.63;108117;1253;76409;-62
2024/02/11 01:02:44;;;;;;;119.40;23.10;;;;;;;7.25;60.60;99204.73;108278;1257;70044;-66
2024/02/11 01:05:12;;;;;;;74.80;21.10;;;;;;;7.28;60.52;99200.78;108198;1253;72678;-66
2024/02/11 01:07:40;;;;;;;83.40;19.20;;;;;;;7.20;60.81;99201.64;108152;1253;61071;-66
2024/02/11 01:10:12;;;;;;;62.70;18.30;;;;;;;7.12;61.01;99191.64;108183;1253;60451;-64
2024/02/11 01:12:40;;;;;;;84.30;21.00;;;;;;;7.02;61.46;99200.90;108225;1253;73899;-66
2024/02/11 01:15:11;;;;;;;124.30;24.20;;;;;;;7.18;60.93;99197.14;108141;1253;71234;-66
2024/02/11 01:17:41;;;;;;;;;;;;;;;7.29;60.79;99188.86;108139;1253;70763;-67
2024/02/11 01:20:10;;;;;;;63.00;16.30;;;;;;;7.46;60.39;99194.52;108093;1253;60476;-67
2024/02/11 01:22:38;;;;;;;81.10;19.50;;;;;;;7.47;60.36;99195.52;108184;1254;60705;-64
2024/02/11 01:25:07;;;;;;;101.60;22.40;;;;;;;7.39;60.49;99186.40;108176;1253;72767;-68
2024/02/11 01:27:37;;;;;;;112.00;23.50;;;;;;;7.42;60.42;99192.75;108168;1253;70658;-66
2024/02/11 01:30:08;;;;;;;98.30;20.10;;;;;;;7.30;60.89;99191.82;108199;1254;72066;-66
2024/02/11 01:32:36;;;;;;;69.80;19.80;;;;;;;7.34;60.79;99190.10;108179;1253;61053;-66
2024/02/11 01:35:07;;;;;;;89.40;19.80;;;;;;;7.18;61.11;99201.55;108176;1252;60190;-66
2024/02/11 01:37:40;;;;;;;105.20;22.90;;;;;;;7.25;61.21;99204.91;108203;1253;73804;-66
2024/02/11 01:40:13;;;;;;;126.20;22.60;;;;;;;7.48;60.28;99202.83;108128;1253;70778;-67
2024/02/11 01:42:44;;;;;;;119.80;23.20;;;;;;;7.20;61.20;99206.34;107996;1253;72700;-67
2024/02/11 01:45:13;;;;;;;89.10;19.70;;;;;;;7.20;61.19;99209.64;108020;1258;60966;-66
2024/02/11 01:47:43;;;;;;;96.70;22.60;;;;;;;7.36;60.84;99206.07;108048;1253;60632;-66
2024/02/11 01:50:13;;;;;;;122.90;23.50;;;;;;;7.41;60.62;99212.35;107958;1253;73888;-66
2024/02/11 01:52:41;;;;;;;69.90;18.90;;;;;;;7.39;60.83;99208.75;107984;1253;69013;-66
2024/02/11 01:55:12;;;;;;;66.80;18.40;;;;;;;7.24;61.03;99206.52;107931;1254;71481;-63
2024/02/11 01:57:41;;;;;;;148.90;26.40;;;;;;;7.18;61.52;99210.24;107958;1254;60563;-67
2024/02/11 02:00:09;;;;;;;110.30;23.90;;;;;;;7.41;60.58;99201.34;108083;1253;60242;-65
2024/02/11 02:02:37;;;;;;;69.20;18.90;;;;;;;7.43;60.69;99204.23;107932;1253;73763;-65
2024/02/11 02:05:07;;;;;;;99.80;24.00;;;;;;;7.35;60.90;99202.95;108065;1253;70279;-66
2024/02/11 02:07:35;;;;;;;76.40;20.50;;;;;;;7.46;60.46;99198.89;108020;1254;71712;-66
2024/02/11 02:10:04;;;;;;;74.10;21.10;;;;;;;7.25;61.08;99197.95;107984;1259;60478;-65
2024/02/11 02:12:32;;;;;;;84.50;20.10;;;;;;;7.30;61.04;99194.26;108055;1253;60329;-64
2024/02/11 02:14:59;;;;;;;93.80;19.50;;;;;;;7.20;61.24;99188.35;108089;1253;72688;-66
2024/02/11 02:17:27;;;;;;;103.30;24.20;;;;;;;7.19;61.48;99189.80;107937;1253;69215;-65
2024/02/11 02:19:54;;;;;;;121.40;24.30;;;;;;;7.47;60.67;99186.94;107965;1253;72744;-65
2024/02/11 02:22:22;;;;;;;106.70;21.70;;;;;;;7.62;60.28;99187.92;107978;1258;59668;-66
2024/02/11 02:24:49;;;;;;;105.50;21.50;;;;;;;7.60;60.20;99195.52;107991;1258;60528;-65
2024/02/11 02:27:17;;;;;;;105.20;24.40;;;;;;;7.45;60.58;99196.64;107996;1256;72584;-64
2024/02/11 02:29:44;;;;;;;77.80;18.80;;;;;;;7.32;61.09;99202.73;107917;1253;68536;-66
2024/02/11 02:32:12;;;;;;;125.20;24.30;;;;;;;7.31;61.23;99210.27;107974;1256;73099;-66
2024/02/11 02:34:40;;;;;;;95.30;21.50;;;;;;;7.38;61.04;99219.80;107936;1253;63064;-65
2024/02/11 02:37:08;;;;;;;74.40;20.00;;;;;;;7.50;60.58;99220.89;108034;1253;60343;-65
2024/02/11 02:39:40;;;;;;;79.50;21.30;;;;;;;7.51;60.52;99224.36;107998;1253;73780;-65
2024/02/11 02:42:08;;;;;;;105.50;23.20;;;;;;;7.49;60.52;99222.67;108117;1253;68745;-65
2024/02/11 02:44:37;;;;;;;90.70;21.10;;;;;;;7.52;60.55;99223.29;108124;1254;71396;-65
2024/02/11 02:47:05;;;;;;;73.50;19.60;;;;;;;7.37;61.02;99223.49;108129;1254;60366;-65
2024/02/11 02:49:34;;;;;;;96.50;20.70;;;;;;;7.31;61.23;99224.59;108102;1258;60744;-64
2024/02/11 02:52:02;;;;;;;125.90;24.80;;;;;;;7.58;60.49;99213.09;108229;1254;73034;-64
2024/02/11 02:54:30;;;;;;;134.30;23.70;;;;;;;7.68;60.24;99212.16;108145;1253;69011;-63
2024/02/11 02:56:58;;;;;;;97.60;22.60;;;;;;;7.69;60.17;99206.52;108163;1257;72615;-65
2024/02/11 02:59:26;;;;;;;128.90;22.90;;;;;;;7.63;60.31;99206.96;108122;1254;60848;-64
2024/02/11 03:02:04;;;;;;;107.90;23.80;;;;;;;7.69;60.15;99205.98;108196;1254;60448;-63
2024/02/11 03:04:31;;;;;;;98.70;22.50;;;;;;;7.78;59.88;99206.69;108217;1259;73100;-66
2024/02/11 03:06:59;;;;;;;68.00;21.70;;;;;;;7.73;59.93;99205.67;108119;1257;68835;-66
2024/02/11 03:09:26;;;;;;;94.40;21.30;;;;;;;7.63;60.47;99206.23;108133;1254;72686;-65
2024/02/11 03:11:54;;;;;;;107.70;22.20;;;;;;;7.63;60.48;99198.05;108138;1258;60376;-66
2024/02/11 03:14:21;;;;;;;114.20;22.00;;;;;;;7.72;60.11;99191.04;108100;1254;60216;-65
2024/02/11 03:16:49;;;;;;;108.20;23.00;;;;;;;7.72;60.16;99180.19;108150;1254;73860;-64
2024/02/11 03:19:17;;;;;;;79.50;19.30;;;;;;;7.83;59.94;99182.40;108088;1253;70064;-64
2024/02/11 03:21:48;;;;;;;83.60;22.10;;;;;;;7.67;60.38;99189.30;108152;1254;72736;-64
2024/02/11 03:24:21;;;;;;;93.30;24.90;;;;;;;7.81;60.15;99195.05;108160;1254;60884;-65
2024/02/11 03:26:48;;;;;;;84.50;21.90;;;;;;;7.95;59.69;99194.65;108212;1254;60312;-65
2024/02/11 03:29:18;;;;;;;87.70;22.20;;;;;;;7.78;60.24;99192.38;108103;1254;73890;-66
2024/02/11 03:31:46;;;;;;;112.60;33.20;;;;;;;7.81;60.06;99192.95;108202;1257;69627;-65
2024/02/11 03:34:14;;;;;;;102.30;26.10;;;;;;;7.76;60.17;99198.55;108033;1255;71244;-66
2024/02/11 03:36:43;;;;;;;110.90;30.50;;;;;;;7.75;60.18;99201.73;107989;1254;60451;-66
2024/02/11 03:39:10;;;;;;;88.70;24.50;;;;;;;7.88;60.00;99196.34;108036;1258;59181;-65
2024/02/11 03:41:38;;;;;;;123.90;29.50;;;;;;;7.86;60.05;99199.41;108103;1255;72709;-65
2024/02/11 03:44:06;;;;;;;92.60;25.40;;;;;;;7.90;59.78;99193.27;108146;1254;69977;-65
2024/02/11 03:46:34;;;;;;;95.00;27.10;;;;;;;7.97;59.66;99194.91;108083;1254;72462;-65
2024/02/11 03:49:02;;;;;;;69.30;21.40;;;;;;;8.02;59.56;99200.13;108095;1255;60441;-65
2024/02/11 03:51:30;;;;;;;109.00;27.90;;;;;;;8.01;59.72;99202.44;108057;1260;60208;-64
2024/02/11 03:54:00;;;;;;;74.70;23.70;;;;;;;7.89;59.89;99199.27;108108;1254;73842;-66
2024/02/11 03:56:28;;;;;;;92.50;26.60;;;;;;;7.82;60.03;99199.38;108101;1254;68943;-67
2024/02/11 03:58:56;;;;;;;99.00;27.20;;;;;;;7.89;59.90;99205.73;108007;1258;72716;-66
2024/02/11 04:01:24;;;;;;;104.50;27.60;;;;;;;7.89;59.84;99208.55;108136;1254;60463;-65
2024/02/11 04:03:52;;;;;;;117.70;25.40;;;;;;;7.89;59.91;99208.71;108056;1254;60359;-65
2024/02/11 04:06:23;;;;;;;113.10;26.40;;;;;;;7.81;59.95;99200.98;108099;1254;72609;-66
2024/02/11 04:08:51;;;;;;;121.80;24.90;;;;;;;7.84;59.91;99195.64;108059;1260;69967;-68
2024/02/11 04:11:19;;;;;;;76.00;23.80;;;;;;;7.78;60.07;99203.21;108186;1253;72706;-70
2024/02/11 04:13:47;;;;;;;101.60;26.10;;;;;;;7.72;60.42;99202.73;108085;1253;61085;-66
2024/02/11 04:16:18;;;;;;;92.00;25.60;;;;;;;7.75;60.10;99205.59;108148;1254;60168;-67
2024/02/11 04:18:47;;;;;;;127.60;26.70;;;;;;;7.78;59.96;99202.70;108061;1254;72629;-66
2024/02/11 04:21:15;;;;;;;;;;;;;;;7.85;59.90;99200.46;108132;1255;70453;-66
2024/02/11 04:23:48;;;;;;;;;;;;;;;7.90;59.83;99199.92;108106;1255;71604;-66
2024/02/11 04:26:17;;;;;;;;;;;;;;;7.88;59.91;99205.26;108063;1254;60434;-66
2024/02/11 04:28:47;;;;;;;;;;;;;;;8.01;59.43;99210.14;108075;1254;59813;-66
2024/02/11 04:31:16;;;;;;;;;;;;;;;7.81;59.84;99202.37;108093;1253;72528;-65
2024/02/11 04:33:46;;;;;;;;;;;;;;;7.71;60.23;99203.81;108123;1254;69729;-66
2024/02/11 04:36:16;;;;;;;;;;;;;;;7.83;60.04;99198.81;108163;1254;73161;-66
2024/02/11 04:38:45;;;;;;;;;;;;;;;7.74;60.28;99200.91;108232;1253;61107;-65
2024/02/11 04:41:13;;;;;;;;;;;;;;;7.67;60.40;99196.84;108157;1253;60355;-66
2024/02/11 04:43:44;;;;;;;;;;;;;;;7.85;60.14;99198.40;108222;1257;74260;-66
2024/02/11 04:46:13;;;;;;;;;;;;;;;7.87;59.92;99189.73;108248;1254;69006;-67
2024/02/11 04:48:41;;;;;;;;;;;;;;;8.03;59.50;99194.30;108248;1254;72943;-66
2024/02/11 04:51:09;;;;;;;;;;;;;;;8.14;59.16;99195.59;108177;1253;60968;-65
2024/02/11 04:53:38;;;;;;;;;;;;;;;7.91;59.82;99191.31;108212;1253;60232;-66
2024/02/11 04:56:05;;;;;;;;;;;;;;;8.09;59.36;99194.08;108175;1254;72850;-67
2024/02/11 04:58:34;;;;;;;;;;;;;;;7.88;59.85;99192.16;108085;1254;69553;-65
2024/02/11 05:01:02;;;;;;;;;;;;;;;7.98;59.65;99186.46;108196;1255;71454;-65
2024/02/11 05:03:30;;;;;;;;;;;;;;;8.05;59.55;99190.55;108090;1254;60841;-66
2024/02/11 05:05:59;;;;;;;;;;;;;;;8.06;59.40;99194.20;108267;1253;60329;-65
2024/02/11 05:08:27;;;;;;;;;;;;;;;7.87;59.93;99193.92;108234;1254;73836;-65
2024/02/11 05:10:55;;;;;;;;;;;;;;;7.89;59.82;99193.50;108124;1254;70095;-67
2024/02/11 05:13:29;;;;;;;;;;;;;;;7.97;59.71;99194.90;108108;1254;72734;-62
2024/02/11 05:15:59;;;;;;;;;;;;;;;7.93;59.79;99197.02;108155;1253;60284;-65
2024/02/11 05:18:29;;;;;;;;;;;;;;;7.97;59.63;99196.82;108103;1253;60517;-66
2024/02/11 05:20:57;;;;;;;;;;;;;;;7.74;60.16;99195.66;108158;1254;72782;-66
2024/02/11 05:23:25;;;;;;;;;;;;;;;7.80;59.94;99204.86;108171;1254;70703;-66
2024/02/11 05:25:53;;;;;;;;;;;;;;;7.82;60.13;99211.26;108209;1254;72663;-66
2024/02/11 05:28:20;;;;;;;;;;;;;;;7.93;59.66;99211.88;108100;1254;60347;-67
2024/02/11 05:30:48;;;;;;;;;;;;;;;7.89;59.80;99211.16;108105;1254;60298;-66
2024/02/11 05:33:18;;;;;;;;;;;;;;;7.80;59.94;99212.02;108115;1254;72632;-66
2024/02/11 05:35:48;;;;;;;;;;;;;;;7.77;60.07;99211.09;108145;1257;69416;-66
2024/02/11 05:38:19;;;;;;;;;;;;;;;7.71;60.31;99211.52;108073;1254;73245;-67
2024/02/11 05:40:50;;;;;;;;;;;;;;;7.81;60.26;99212.70;108106;1252;60861;-63
2024/02/11 05:43:19;;;;;;;;;;;;;;;7.82;60.04;99215.79;108281;1254;61033;-66
2024/02/11 05:45:47;;;;;;;;;;;;;;;7.77;60.28;99209.71;108199;1253;72585;-67
2024/02/11 05:48:15;;;;;;;;;;;;;;;7.91;59.97;99213.88;108146;1254;69942;-66
2024/02/11 05:50:44;;;;;;;;;;;;;;;8.00;59.76;99218.41;108098;1254;74982;-68
2024/02/11 05:53:12;;;;;;;;;;;;;;;7.98;59.66;99218.82;108106;1253;61663;-66
2024/02/11 05:55:39;;;;;;;;;;;;;;;7.96;59.82;99210.52;108083;1254;60268;-66
2024/02/11 05:58:07;;;;;;;;;;;;;;;7.98;59.85;99213.40;108187;1253;74272;-65
2024/02/11 06:00:36;;;;;;;;;;;;;;;7.94;59.88;99211.27;108265;1254;69930;-67
2024/02/11 06:03:04;;;;;;;;;;;;;;;8.09;59.71;99215.58;108202;1253;72826;-66
2024/02/11 06:05:32;;;;;;;;;;;;;;;8.10;59.54;99220.41;108171;1254;60535;-67
2024/02/11 06:08:00;;;;;;;;;;;;;;;8.04;59.79;99215.45;108162;1254;60617;-66
2024/02/11 06:10:30;;;;;;;;;;;;;;;8.00;59.89;99218.04;108117;1254;74224;-65
2024/02/11 06:12:57;;;;;;;;;;;;;;;8.11;59.54;99224.23;108173;1254;70121;-65
2024/02/11 06:15:27;;;;;;;;;;;;;;;8.08;59.64;99226.27;108221;1255;73286;-65
2024/02/11 06:18:00;;;;;;;;;;;;;;;8.03;59.62;99223.33;108106;1253;60930;-65
2024/02/11 06:20:28;;;;;;;;;;;;;;;8.06;59.60;99216.55;108104;1253;60474;-67
2024/02/11 06:22:56;;;;;;;;;;;;;;;8.25;59.21;99216.85;108107;1253;73885;-66
2024/02/11 06:25:23;;;;;;;;;;;;;;;8.28;58.97;99216.89;108151;1254;69106;-65
2024/02/11 06:27:51;;;;;;;;;;;;;;;8.25;59.28;99216.83;108141;1254;71918;-65
2024/02/11 06:30:19;;;;;;;;;;;;;;;8.25;59.24;99218.76;108200;1254;60415;-66
2024/02/11 06:32:49;;;;;;;;;;;;;;;8.34;58.94;99217.66;108188;1254;60787;-66
2024/02/11 06:35:19;;;;;;;;;;;;;;;8.31;59.07;99213.61;108144;1254;73788;-67
2024/02/11 06:37:48;;;;;;;;;;;;;;;8.35;59.04;99210.81;108135;1254;68246;-67
2024/02/11 06:40:17;;;;;;;;;;;;;;;8.32;59.20;99203.94;108144;1257;73044;-67
2024/02/11 06:42:50;;;;;;;;;;;;;;;8.34;59.19;99207.19;108196;1252;60911;-67
2024/02/11 06:45:18;;;;;;;;;;;;;;;8.32;59.37;99203.95;108206;1254;60454;-66
2024/02/11 06:47:46;;;;;;;;;;;;;;;8.41;59.10;99198.84;108337;1254;72819;-66
2024/02/11 06:50:15;;;;;;;;;;;;;;;8.32;59.20;99194.48;108194;1253;69965;-66
2024/02/11 06:52:44;;;;;;;;;;;;;;;8.42;59.33;99192.33;108186;1254;72710;-67
2024/02/11 06:55:15;;;;;;;;;;;;;;;8.44;59.15;99189.30;108260;1254;60600;-68
2024/02/11 06:57:44;;;;;;;;;;;;;;;8.26;59.65;99185.69;108222;1254;60613;-68
2024/02/11 07:00:14;;;;;;;;;;;;;;;8.04;60.18;99183.09;108175;1254;73803;-67
2024/02/11 07:02:47;;;;;;;;;;;;;;;8.15;59.78;99188.39;108155;1254;69221;-68
2024/02/11 07:05:15;;;;;;;;;;;;;;;8.09;59.99;99198.44;108118;1253;71431;-67
2024/02/11 07:07:44;;;;;;;;;;;;;;;8.22;59.82;99200.33;108176;1253;60435;-67
2024/02/11 07:10:13;;;;;;;;;;;;;;;8.19;59.98;99202.55;108181;1252;60439;-66
2024/02/11 07:12:44;;;;;;;;;;;;;;;8.22;60.04;99202.63;108226;1254;74728;-66
2024/02/11 07:15:14;;;;;;;;;;;;;;;8.27;60.20;99200.13;108270;1254;69496;-66
2024/02/11 07:17:44;;;;;;;;;;;;;;;8.33;59.86;99205.65;108183;1254;72686;-66
2024/02/11 07:20:14;;;;;;;;;;;;;;;8.06;60.41;99205.19;108169;1253;60527;-66
2024/02/11 07:22:44;;;;;;;;;;;;;;;8.10;60.27;99211.84;108155;1252;60416;-66
2024/02/11 07:25:18;;;;;;;;;;;;;;;8.13;60.13;99211.55;108132;1253;72608;-66
2024/02/11 07:27:45;;;;;;;;;;;;;;;8.05;60.42;99205.59;108172;1254;70005;-67
2024/02/11 07:30:16;;;;;;;;;;;;;;;8.08;60.34;99207.23;108164;1254;73795;-67
2024/02/11 07:32:45;;;;;;;;;;;;;;;8.04;60.54;99202.33;108130;1254;60872;-67
2024/02/11 07:35:15;;;;;;;;;;;;;;;8.07;60.44;99209.20;108098;1254;59344;-67
2024/02/11 07:37:44;;;;;;;;;;;;;;;8.01;60.80;99205.24;108088;1254;73967;-67
2024/02/11 07:40:14;;;;;;;;;;;;;;;8.13;60.59;99205.23;108127;1253;72628;-67
2024/02/11 07:42:43;;;;;;;;;;;;;;;8.14;60.57;99202.41;108081;1254;71442;-67
2024/02/11 07:45:14;;;;;;;;;;;;;;;8.18;60.45;99210.64;108047;1253;60951;-66
2024/02/11 07:47:47;;;;;;;;;;;;;;;8.16;60.48;99214.05;108077;1258;60410;-66
2024/02/11 07:50:17;;;;;;;;;;;;;;;8.21;60.58;99219.62;108046;1253;74006;-67
2024/02/11 07:52:46;;;;;;;;;;;;;;;8.23;60.32;99225.84;108088;1253;70107;-66
2024/02/11 07:55:13;;;;;;;;;;;;;;;8.29;60.09;99228.55;107952;1258;124352;-66
2024/02/11 07:58:50;;;;;;;60.00;21.10;;;;;;;6.96;65.44;99240.23;104994;1289;600321;-66
2024/02/11 08:01:18;;;;;;;54.50;19.20;;;;;;;7.90;61.97;99240.83;107330;1263;59974;-68
2024/02/11 08:03:47;;;;;;;43.60;18.80;;;;;;;7.98;61.58;99249.08;107476;1263;59133;-67
2024/02/11 08:06:15;;;;;;;75.10;21.70;;;;;;;7.57;62.34;99254.35;107333;1263;71240;-66
2024/02/11 08:08:43;;;;;;;89.70;23.40;;;;;;;7.62;62.17;99254.84;107298;1263;69929;-67
2024/02/11 08:11:11;;;;;;;61.50;22.40;;;;;;;7.37;62.73;99255.10;107302;1265;72878;-68
2024/02/11 08:13:39;;;;;;;78.60;23.90;;;;;;;7.50;62.36;99250.95;107365;1260;111592;-66
2024/02/11 08:16:11;;;;;;;53.60;23.80;;;;;;;7.69;61.80;99255.45;108142;1253;59985;-67
2024/02/11 08:18:38;;;;;;;75.10;23.50;;;;;;;7.75;61.77;99256.96;108049;1253;72813;-67
2024/02/11 08:21:09;;;;;;;64.90;24.20;;;;;;;7.71;61.90;99257.98;108072;1255;68706;-66
2024/02/11 08:23:38;;;;;;;59.30;21.50;;;;;;;7.64;61.88;99257.03;108329;1250;72724;-67
2024/02/11 08:26:06;;;;;;;61.90;24.40;;;;;;;7.85;61.30;99252.90;108291;1250;60289;-67
2024/02/11 08:28:34;;;;;;;61.80;23.00;;;;;;;8.05;60.73;99243.55;108357;1250;59609;-67
2024/02/11 08:31:01;;;;;;;86.20;24.70;;;;;;;8.16;60.45;99244.46;108188;1250;72471;-67
2024/02/11 08:33:29;;;;;;;77.30;24.50;;;;;;;8.15;60.43;99252.72;108171;1251;70050;-67
2024/02/11 08:35:56;;;;;;;64.40;24.00;;;;;;;8.05;60.60;99255.56;108102;1258;72657;-66
2024/02/11 08:38:24;;;;;;;73.00;23.50;;;;;;;7.99;60.93;99262.63;108251;1251;60991;-68
2024/02/11 08:40:51;;;;;;;57.00;22.60;;;;;;;7.96;61.04;99265.57;108287;1250;59051;-66
2024/02/11 08:43:19;;;;;;;47.50;19.40;;;;;;;7.88;61.32;99270.05;108305;1251;71712;-68
2024/02/11 08:45:46;;;;;;;59.60;23.00;;;;;;;7.72;61.58;99277.00;108307;1251;70765;-67
2024/02/11 08:48:14;;;;;;;53.40;22.10;;;;;;;7.88;61.01;99277.41;108291;1251;71671;-66
2024/02/11 08:50:42;;;;;;;58.10;22.70;;;;;;;7.89;61.16;99269.70;108330;1250;61149;-67
2024/02/11 08:53:10;;;;;;;70.20;24.90;;;;;;;7.85;61.38;99265.64;108312;1251;59969;-66
2024/02/11 08:55:38;;;;;;;76.70;24.40;;;;;;;7.85;61.32;99257.96;108235;1251;71706;-67
2024/02/11 08:58:06;;;;;;;72.20;28.40;;;;;;;7.95;61.00;99251.08;108236;1251;70741;-66
2024/02/11 09:00:34;;;;;;;75.60;29.20;;;;;;;8.09;60.63;99251.23;108235;1251;72693;-65
2024/02/11 09:03:01;;;;;;;82.50;29.60;;;;;;;8.07;60.74;99253.59;108208;1253;60338;-67
2024/02/11 09:05:30;;;;;;;75.50;30.40;;;;;;;8.04;60.60;99248.66;108275;1251;60171;-68
2024/02/11 09:07:57;;;;;;;68.50;26.90;;;;;;;7.98;60.73;99252.90;108231;1251;71371;-67
2024/02/11 09:10:25;;;;;;;70.90;26.60;;;;;;;8.05;60.77;99254.73;108198;1252;68850;-66
2024/02/11 09:12:53;;;;;;;85.70;28.50;;;;;;;7.94;61.04;99261.62;108195;1253;71434;-65
2024/02/11 09:15:22;;;;;;;70.00;26.10;;;;;;;7.96;60.95;99262.40;108198;1252;60949;-66
2024/02/11 09:17:50;;;;;;;76.00;29.00;;;;;;;8.10;60.39;99256.77;108259;1252;60980;-67
2024/02/11 09:20:19;;;;;;;64.80;26.40;;;;;;;8.33;59.90;99259.67;108174;1256;73130;-67
2024/02/11 09:22:46;;;;;;;83.30;27.80;;;;;;;8.54;59.44;99272.31;108248;1253;70499;-67
2024/02/11 09:25:14;;;;;;;66.70;24.50;;;;;;;8.61;59.26;99267.98;108343;1256;74989;-67
2024/02/11 09:27:43;;;;;;;85.30;29.10;;;;;;;8.59;59.33;99259.51;108278;1253;59914;-66
2024/02/11 09:30:12;;;;;;;98.30;33.00;;;;;;;8.69;59.01;99261.17;108269;1256;59975;-65
2024/02/11 09:32:39;;;;;;;79.20;29.70;;;;;;;8.72;58.88;99265.93;108352;1253;73094;-67
2024/02/11 09:35:09;;;;;;;92.40;30.60;;;;;;;8.75;58.99;99269.32;108270;1252;72959;-67
2024/02/11 09:37:37;;;;;;;114.30;32.30;;;;;;;8.51;59.48;99262.80;108139;1253;72715;-67
2024/02/11 09:40:06;;;;;;;72.30;29.90;;;;;;;8.58;59.27;99258.48;108177;1256;60840;-67
2024/02/11 09:42:34;;;;;;;81.90;29.80;;;;;;;8.37;59.51;99258.12;108211;1253;60022;-67
2024/02/11 09:45:03;;;;;;;75.60;28.10;;;;;;;8.47;59.31;99253.86;108183;1254;73078;-67
2024/02/11 09:47:32;;;;;;;78.00;31.60;;;;;;;8.53;59.05;99248.58;108096;1253;72394;-67
2024/02/11 09:50:01;;;;;;;72.30;30.40;;;;;;;8.49;59.07;99252.06;108273;1253;72933;-67
2024/02/11 09:52:29;;;;;;;79.10;31.10;;;;;;;8.33;59.35;99248.01;108296;1253;59867;-67
2024/02/11 09:54:56;;;;;;;67.60;29.30;;;;;;;8.04;60.32;99247.60;108293;1254;60123;-67
2024/02/11 09:57:24;;;;;;;73.90;31.10;;;;;;;8.21;60.26;99250.77;108169;1253;72707;-67
2024/02/11 09:59:51;;;;;;;77.30;30.80;;;;;;;8.26;60.53;99248.77;108178;1253;68830;-66
2024/02/11 10:02:19;;;;;;;67.50;26.60;;;;;;;8.48;60.09;99249.99;108215;1252;72346;-67
2024/02/11 10:04:47;;;;;;;62.70;27.30;;;;;;;8.46;59.94;99254.99;108275;1252;60822;-67
2024/02/11 10:07:23;;;;;;;72.60;29.00;;;;;;;8.55;59.50;99251.79;108342;1252;60359;-67
2024/02/11 10:09:50;;;;;;;71.90;28.60;;;;;;;8.58;59.13;99245.20;108265;1253;72312;-67
2024/02/11 10:12:19;;;;;;;69.00;29.20;;;;;;;8.74;58.88;99245.89;108257;1254;69436;-66
2024/02/11 10:15:16;;;;;;;61.50;27.80;;;;;;;8.56;59.18;99241.80;108220;1253;72470;-66
2024/02/11 10:17:46;;;;;;;53.00;24.30;;;;;;;8.55;58.76;99233.94;108171;1254;62191;-67
2024/02/11 10:20:14;;;;;;;61.70;26.10;;;;;;;8.50;58.74;99231.53;108243;1253;59474;-67
2024/02/11 10:22:42;;;;;;;57.30;25.00;;;;;;;8.44;58.90;99228.46;108233;1253;72381;-67
2024/02/11 10:25:11;;;;;;;58.10;24.20;;;;;;;8.50;58.87;99229.08;108269;1254;69994;-66
2024/02/11 10:27:40;;;;;;;54.40;24.70;;;;;;;8.55;58.63;99233.77;108207;1256;72138;-67
2024/02/11 10:30:09;;;;;;;59.10;25.10;;;;;;;8.53;58.55;99233.69;108251;1253;60914;-67
2024/02/11 10:32:37;;;;;;;53.80;24.30;;;;;;;8.54;58.55;99229.42;108212;1252;59803;-66
2024/02/11 10:35:06;;;;;;;55.10;23.60;;;;;;;8.55;58.59;99231.84;108184;1253;71819;-68
2024/02/11 10:37:45;;;;;;;50.60;23.10;;;;;;;8.42;58.71;99233.80;108108;1252;69064;-68
2024/02/11 10:40:17;;;;;;;49.60;23.80;;;;;;;8.44;58.76;99227.06;108145;1253;70483;-67
2024/02/11 10:42:45;;;;;;;57.80;24.70;;;;;;;8.55;58.45;99222.20;108120;1253;60749;-67
2024/02/11 10:45:13;;;;;;;48.50;21.90;;;;;;;8.58;58.24;99218.95;108142;1257;60010;-67
2024/02/11 10:47:41;;;;;;;55.90;27.90;;;;;;;8.61;58.22;99217.58;108211;1253;71944;-67
2024/02/11 10:50:10;;;;;;;58.00;25.80;;;;;;;8.65;58.35;99216.94;108196;1252;68792;-67
2024/02/11 10:52:41;;;;;;;45.80;22.30;;;;;;;8.51;58.43;99206.66;108175;1252;72755;-68
2024/02/11 10:55:10;;;;;;;46.20;22.50;;;;;;;8.41;58.55;99205.66;108133;1252;61722;-67
2024/02/11 10:57:52;;;;;;;50.60;23.70;;;;;;;8.37;58.83;99203.73;108134;1253;60173;-67
2024/02/11 11:00:21;;;;;;;48.10;23.40;;;;;;;8.53;58.39;99204.80;108135;1253;73032;-67
2024/02/11 11:02:53;;;;;;;50.20;24.50;;;;;;;8.62;58.21;99211.08;108162;1253;70586;-67
2024/02/11 11:05:21;;;;;;;50.50;25.00;;;;;;;8.60;58.07;99217.65;108095;1253;72647;-67
2024/02/11 11:07:52;;;;;;;42.90;22.00;;;;;;;8.71;58.02;99216.13;108213;1253;61513;-67
2024/02/11 11:10:19;;;;;;;48.20;24.00;;;;;;;8.78;57.99;99208.46;108169;1253;59992;-67
2024/02/11 11:12:48;;;;;;;49.00;23.30;;;;;;;8.88;57.74;99211.15;108043;1252;71712;-67
2024/02/11 11:15:26;;;;;;;54.20;24.80;;;;;;;8.94;57.42;99209.83;108096;1253;70565;-67
2024/02/11 11:17:54;;;;;;;39.30;21.10;;;;;;;8.91;57.27;99202.96;108200;1253;71591;-66
2024/02/11 11:20:22;;;;;;;42.40;20.30;;;;;;;8.77;57.58;99203.44;108261;1252;60845;-67
2024/02/11 11:22:55;;;;;;;44.10;23.10;;;;;;;8.70;57.81;99198.30;108213;1253;59483;-67
2024/02/11 11:25:32;;;;;;;39.00;19.00;;;;;;;8.66;57.98;99200.23;108170;1253;73142;-67
2024/02/11 11:28:10;;;;;;;45.80;23.40;;;;;;;8.80;57.59;99189.14;108134;1253;69942;-65
2024/02/11 11:30:37;;;;;;;45.50;23.90;;;;;;;8.94;57.14;99181.48;108215;1253;71785;-67
2024/02/11 11:33:05;;;;;;;46.00;23.50;;;;;;;8.89;57.39;99181.86;108109;1252;61124;-65
2024/02/11 11:35:34;;;;;;;49.30;25.40;;;;;;;8.92;57.22;99185.06;108271;1252;60010;-67
2024/02/11 11:38:05;;;;;;;45.10;23.10;;;;;;;8.89;57.39;99188.52;108198;1253;71844;-66
2024/02/11 11:40:36;;;;;;;49.40;25.70;;;;;;;9.01;57.07;99185.38;108191;1253;68858;-66
2024/02/11 11:43:20;;;;;;;40.60;20.80;;;;;;;9.05;57.05;99184.83;108108;1252;74870;-67
2024/02/11 11:45:55;;;;;;;44.30;22.20;;;;;;;8.73;57.72;99188.90;108170;1252;59900;-67
2024/02/11 11:48:23;;;;;;;41.10;20.60;;;;;;;8.70;57.75;99184.48;108153;1253;59235;-67
2024/02/11 11:50:55;;;;;;;43.40;24.30;;;;;;;8.71;57.80;99186.38;108190;1252;71789;-66